Pagrindinis puslapis
METAR-TAF:

METAR-TAF

Oro uostai :

Linšiopingas, Švedija

platuma: 58-24N, ilguma: 015-41E, Aukštis: 52 m

Dabartinis oras

Ataskaita buvo paskelbta 20 minutes, ne 01:50 UTC
Vėjas 3 kt nuo kintamojo kryptimis
Temperatūra 15°C
Drėgmė 94%
Slėgis 1023 hPa
Matomumas 10 km arba daugiau

METAR: ESSL 240150Z AUTO VRB03KT 9999 NCD 15/14 Q1023

Laikas: 04:10 (02:10 UTC)

Prognozė

Ataskaita buvo paskelbta 8 valandos ir 40 minutes, ne 17:30 UTC
Prognozė galioja nuo 23 metu 18 UTC su 23 metu 22 UTC
Vėjas 11 kt iš Vakarų
Matomumas 10 km arba daugiau
Išsisklaidę debesys ne aukštis 2500 ft
Su prošvaistėmis ne aukštis 3500 ft

TAF: ESSL 231730Z 2318/2322 26011KT 9999 SCT025 BKN035

Orai ataskaitas ir orų prognozės (METAR, TAF).

turimą stotys yra geltonos ir raudonos taškus žemėlapyje.

Perkelti pele per norėdami pamatyti stoties vardą.

Tada spustelėkite, norėdami matyti oro stebėjimo ir prognozės.

Norėdami pakeisti žemėlapį: spustelėkite ant žalios mygtukų su juodo kryžiaus žemyn,; žalią mygtuką su brūkšneliu, jei norite nutolinti; arba žalių rodyklių gretimoms žemėlapius.


METAR-TAF: